Great — TCYV6 — position and weather

sailwx.info

Track history (hours):
 
Tides and Currents Weather Stations Pressure Air Temp Water Temp Dewpoint Dewpoint Depression Visibility Wind Speed Wind Dir Waves Ship Positions

Great

Last reported at 2014-Oct-01 20:09 UTC. Time now 2014-Oct-02 04:32 UTC.
Position N 36°25' E 022°53'.

Length 187 m; draft 10.5 m.

Type: Cargo ship. MMSI: 271042241.

Date/timePositionNaut miles runAvg speedWind from/ knotsBaromVisibWave heightAir tempDewpointWater temp
2014-Oct-01 20:09N 36°25' E 022°53'5110.7
2014-Oct-01 15:26N 36°27' E 023°56'910.7
2014-Oct-01 14:33N 36°29' E 024°07'1110.5
2014-Oct-01 13:33N 36°30' E 024°20'1110.7
2014-Oct-01 12:33N 36°30' E 024°34'1110.8
2014-Oct-01 11:33N 36°31' E 024°47'1110.7
2014-Oct-01 10:33N 36°32' E 025°00'1111.1
2014-Oct-01 09:33N 36°34' E 025°14'1110.9
2014-Oct-01 08:33N 36°36' E 025°27'1110.8
2014-Oct-01 07:33N 36°40' E 025°40'1110.8
2014-Oct-01 06:33N 36°44' E 025°52'1010.5
2014-Oct-01 05:33N 36°49' E 026°04'1010.3
2014-Oct-01 04:33N 36°53' E 026°16'1510.3
2014-Oct-01 03:06N 36°60' E 026°33'710.8
2014-Oct-01 02:28N 37°05' E 026°37'1010.7
2014-Oct-01 01:33N 37°13' E 026°45'  
2014-Sep-25 18:20N 37°14' E 026°49'3611.6
2014-Sep-25 15:15N 36°52' E 026°14'812.2
2014-Sep-25 14:33N 36°48' E 026°04'1212.2
2014-Sep-25 13:34N 36°43' E 025°50'1212.4
2014-Sep-25 12:33N 36°39' E 025°36'1211.9
2014-Sep-25 11:34N 36°34' E 025°22'1212.3
2014-Sep-25 10:34N 36°32' E 025°07'1212.3
2014-Sep-25 09:34N 36°31' E 024°52'1212.3
2014-Sep-25 08:34N 36°30' E 024°36'1312.6
2014-Sep-25 07:34N 36°29' E 024°21'1312.6
2014-Sep-25 06:31N 36°27' E 024°04'  
Track history (hours):
 
Tides and Currents Weather Stations Pressure Air Temp Water Temp Dewpoint Dewpoint Depression Visibility Wind Speed Wind Dir Waves Ship Positions

Great

Last reported at 2014-Oct-01 20:09 UTC. Time now 2014-Oct-02 04:32 UTC.
Position N 36°25' E 022°53'.

Length 187 m; draft 10.5 m.

Type: Cargo ship. MMSI: 271042241.

Date/timePositionNaut miles runAvg speedWind from/ knotsBaromVisibWave heightAir tempDewpointWater temp
2014-Oct-01 20:09N 36°25' E 022°53'5110.7
2014-Oct-01 15:26N 36°27' E 023°56'910.7
2014-Oct-01 14:33N 36°29' E 024°07'1110.5
2014-Oct-01 13:33N 36°30' E 024°20'1110.7
2014-Oct-01 12:33N 36°30' E 024°34'1110.8
2014-Oct-01 11:33N 36°31' E 024°47'1110.7
2014-Oct-01 10:33N 36°32' E 025°00'1111.1
2014-Oct-01 09:33N 36°34' E 025°14'1110.9
2014-Oct-01 08:33N 36°36' E 025°27'1110.8
2014-Oct-01 07:33N 36°40' E 025°40'1110.8
2014-Oct-01 06:33N 36°44' E 025°52'1010.5
2014-Oct-01 05:33N 36°49' E 026°04'1010.3
2014-Oct-01 04:33N 36°53' E 026°16'1510.3
2014-Oct-01 03:06N 36°60' E 026°33'710.8
2014-Oct-01 02:28N 37°05' E 026°37'1010.7
2014-Oct-01 01:33N 37°13' E 026°45'  
2014-Sep-25 18:20N 37°14' E 026°49'3611.6
2014-Sep-25 15:15N 36°52' E 026°14'812.2
2014-Sep-25 14:33N 36°48' E 026°04'1212.2
2014-Sep-25 13:34N 36°43' E 025°50'1212.4
2014-Sep-25 12:33N 36°39' E 025°36'1211.9
2014-Sep-25 11:34N 36°34' E 025°22'1212.3
2014-Sep-25 10:34N 36°32' E 025°07'1212.3
2014-Sep-25 09:34N 36°31' E 024°52'1212.3
2014-Sep-25 08:34N 36°30' E 024°36'1312.6
2014-Sep-25 07:34N 36°29' E 024°21'1312.6
2014-Sep-25 06:31N 36°27' E 024°04'  

Dump ship's entire track history